sensor_id;sensor_type;location;lat;lon;timestamp;pressure;altitude;pressure_sealevel;temperature;humidity
37486;BME280;23341;50.296;18.960;2023-05-01T00:00:14;49280.69;;;-144.43;67.14
37486;BME280;23341;50.296;18.960;2023-05-01T00:05:42;49324.66;;;-144.43;67.88
37486;BME280;23341;50.296;18.960;2023-05-01T00:10:47;49316.66;;;-144.43;68.54
37486;BME280;23341;50.296;18.960;2023-05-01T00:15:52;49308.66;;;-144.43;68.93
37486;BME280;23341;50.296;18.960;2023-05-01T00:20:57;49286.69;;;-144.43;68.49
37486;BME280;23341;50.296;18.960;2023-05-01T00:26:03;49288.69;;;-144.43;67.98
37486;BME280;23341;50.296;18.960;2023-05-01T00:31:07;49302.66;;;-144.43;67.55
37486;BME280;23341;50.296;18.960;2023-05-01T00:36:11;49314.66;;;-144.43;68.76
37486;BME280;23341;50.296;18.960;2023-05-01T00:41:17;49314.66;;;-144.43;69.57
37486;BME280;23341;50.296;18.960;2023-05-01T00:46:23;49300.66;;;-144.43;69.72
37486;BME280;23341;50.296;18.960;2023-05-01T00:51:28;49318.66;;;-144.43;71.71
37486;BME280;23341;50.296;18.960;2023-05-01T00:56:34;49306.66;;;-144.43;70.42
37486;BME280;23341;50.296;18.960;2023-05-01T01:01:40;49316.66;;;-144.43;72.74
37486;BME280;23341;50.296;18.960;2023-05-01T01:06:51;49322.66;;;-144.43;71.94
37486;BME280;23341;50.296;18.960;2023-05-01T01:12:08;49318.66;;;-144.43;72.06
37486;BME280;23341;50.296;18.960;2023-05-01T01:17:22;49366.63;;;-144.43;73.47
37486;BME280;23341;50.296;18.960;2023-05-01T01:22:29;49334.66;;;-144.43;71.64
37486;BME280;23341;50.296;18.960;2023-05-01T01:28:01;49292.69;;;-144.43;70.03
37486;BME280;23341;50.296;18.960;2023-05-01T01:39:05;49286.69;;;-144.43;68.72
37486;BME280;23341;50.296;18.960;2023-05-01T01:44:16;49302.66;;;-144.43;68.48
37486;BME280;23341;50.296;18.960;2023-05-01T01:49:23;49312.66;;;-144.43;68.20
37486;BME280;23341;50.296;18.960;2023-05-01T01:54:34;49310.66;;;-144.43;68.99
37486;BME280;23341;50.296;18.960;2023-05-01T01:59:41;49276.69;;;-144.43;68.98
37486;BME280;23341;50.296;18.960;2023-05-01T02:04:47;49292.69;;;-144.43;68.41
37486;BME280;23341;50.296;18.960;2023-05-01T02:09:55;49258.69;;;-144.43;67.26
37486;BME280;23341;50.296;18.960;2023-05-01T02:15:01;49286.69;;;-144.43;66.53
37486;BME280;23341;50.296;18.960;2023-05-01T02:20:08;49258.69;;;-144.43;66.97
37486;BME280;23341;50.296;18.960;2023-05-01T02:25:16;49266.69;;;-144.43;67.67
37486;BME280;23341;50.296;18.960;2023-05-01T02:30:21;49254.69;;;-144.43;68.29
37486;BME280;23341;50.296;18.960;2023-05-01T02:35:25;49260.69;;;-144.43;68.10
37486;BME280;23341;50.296;18.960;2023-05-01T02:40:31;49262.69;;;-144.43;68.16
37486;BME280;23341;50.296;18.960;2023-05-01T02:45:37;49278.69;;;-144.43;69.44
37486;BME280;23341;50.296;18.960;2023-05-01T02:50:43;49266.69;;;-144.43;70.80
37486;BME280;23341;50.296;18.960;2023-05-01T02:55:52;49286.69;;;-144.43;71.47
37486;BME280;23341;50.296;18.960;2023-05-01T03:00:56;49314.66;;;-144.43;73.28
37486;BME280;23341;50.296;18.960;2023-05-01T03:06:00;49310.66;;;-144.43;72.88
37486;BME280;23341;50.296;18.960;2023-05-01T03:11:07;49328.66;;;-144.43;74.40
37486;BME280;23341;50.296;18.960;2023-05-01T03:16:11;49322.66;;;-144.43;76.12
37486;BME280;23341;50.296;18.960;2023-05-01T03:21:16;49356.63;;;-144.43;77.64
37486;BME280;23341;50.296;18.960;2023-05-01T03:26:22;49390.59;;;-144.43;77.97
37486;BME280;23341;50.296;18.960;2023-05-01T03:31:26;49352.63;;;-144.43;79.75
37486;BME280;23341;50.296;18.960;2023-05-01T03:36:33;49398.59;;;-144.43;79.22
37486;BME280;23341;50.296;18.960;2023-05-01T03:41:38;49374.63;;;-144.43;77.41
37486;BME280;23341;50.296;18.960;2023-05-01T03:46:53;49374.63;;;-144.43;75.91
37486;BME280;23341;50.296;18.960;2023-05-01T03:52:02;49354.63;;;-144.43;74.35
37486;BME280;23341;50.296;18.960;2023-05-01T03:57:08;49338.63;;;-144.43;72.61
37486;BME280;23341;50.296;18.960;2023-05-01T04:02:13;49328.66;;;-144.43;72.29
37486;BME280;23341;50.296;18.960;2023-05-01T04:07:19;49336.66;;;-144.43;71.95
37486;BME280;23341;50.296;18.960;2023-05-01T04:12:26;49362.63;;;-144.43;72.12
37486;BME280;23341;50.296;18.960;2023-05-01T04:17:30;49350.63;;;-144.43;72.63
37486;BME280;23341;50.296;18.960;2023-05-01T04:22:35;49378.63;;;-144.43;72.72
37486;BME280;23341;50.296;18.960;2023-05-01T04:27:40;49372.63;;;-144.43;71.24
37486;BME280;23341;50.296;18.960;2023-05-01T04:32:45;49354.63;;;-144.43;71.32
37486;BME280;23341;50.296;18.960;2023-05-01T04:37:50;49368.63;;;-144.43;71.32
37486;BME280;23341;50.296;18.960;2023-05-01T04:42:56;49390.59;;;-144.43;70.29
37486;BME280;23341;50.296;18.960;2023-05-01T04:48:00;49352.63;;;-144.43;68.52
37486;BME280;23341;50.296;18.960;2023-05-01T04:53:04;49428.59;;;-144.43;69.17
37486;BME280;23341;50.296;18.960;2023-05-01T04:58:11;49442.56;;;-144.43;68.03
37486;BME280;23341;50.296;18.960;2023-05-01T05:03:17;49470.56;;;-144.43;65.88
37486;BME280;23341;50.296;18.960;2023-05-01T05:08:22;49584.47;;;-144.43;61.70
37486;BME280;23341;50.296;18.960;2023-05-01T05:13:32;49646.44;;;-144.43;55.49
37486;BME280;23341;50.296;18.960;2023-05-01T05:18:42;49602.47;;;-144.43;52.20
37486;BME280;23341;50.296;18.960;2023-05-01T05:23:46;49694.41;;;-144.43;48.57
37486;BME280;23341;50.296;18.960;2023-05-01T05:28:54;49708.41;;;-144.43;48.13
37486;BME280;23341;50.296;18.960;2023-05-01T05:33:59;49588.47;;;-144.43;49.34
37486;BME280;23341;50.296;18.960;2023-05-01T05:39:03;49598.47;;;-144.43;48.70
37486;BME280;23341;50.296;18.960;2023-05-01T05:44:09;49698.41;;;-144.43;48.13
37486;BME280;23341;50.296;18.960;2023-05-01T05:49:14;49708.41;;;-144.43;46.20
37486;BME280;23341;50.296;18.960;2023-05-01T05:54:19;49764.38;;;-144.43;43.16
37486;BME280;23341;50.296;18.960;2023-05-01T05:59:25;50004.25;;;-144.43;38.91
37486;BME280;23341;50.296;18.960;2023-05-01T06:04:29;50000.25;;;-144.43;38.32
37486;BME280;23341;50.296;18.960;2023-05-01T06:09:34;50006.25;;;-144.43;37.64
37486;BME280;23341;50.296;18.960;2023-05-01T06:14:39;50653.94;;;-144.43;32.17
37486;BME280;23341;50.296;18.960;2023-05-01T06:40:37;50727.94;;;-144.43;29.84
37486;BME280;23341;50.296;18.960;2023-05-01T06:45:42;50711.94;;;-144.43;29.21
37486;BME280;23341;50.296;18.960;2023-05-01T06:58:03;50438.03;;;-144.43;28.92
37486;BME280;23341;50.296;18.960;2023-05-01T07:09:02;50278.09;;;-144.43;29.38
37486;BME280;23341;50.296;18.960;2023-05-01T07:14:07;50220.13;;;-144.43;29.94
37486;BME280;23341;50.296;18.960;2023-05-01T07:25:34;50294.09;;;-144.43;29.83
37486;BME280;23341;50.296;18.960;2023-05-01T07:30:41;50370.06;;;-144.43;29.67
37486;BME280;23341;50.296;18.960;2023-05-01T07:42:51;50771.91;;;-144.43;27.55
37486;BME280;23341;50.296;18.960;2023-05-01T07:48:23;51069.81;;;-144.43;26.95
37486;BME280;23341;50.296;18.960;2023-05-01T07:59:41;50891.88;;;-144.43;26.88
37486;BME280;23341;50.296;18.960;2023-05-01T08:04:50;50961.84;;;-144.43;26.89
37486;BME280;23341;50.296;18.960;2023-05-01T08:09:55;51735.72;;;-144.43;25.00
37486;BME280;23341;50.296;18.960;2023-05-01T08:15:02;52071.69;;;-144.43;23.93
37486;BME280;23341;50.296;18.960;2023-05-01T08:20:10;51573.72;;;-144.43;24.48
37486;BME280;23341;50.296;18.960;2023-05-01T08:25:15;52305.72;;;-144.43;23.93
37486;BME280;23341;50.296;18.960;2023-05-01T08:30:20;50583.97;;;-144.43;27.10
37486;BME280;23341;50.296;18.960;2023-05-01T08:35:25;50468.03;;;-144.43;27.84
37486;BME280;23341;50.296;18.960;2023-05-01T08:40:33;51121.81;;;-144.43;26.42
37486;BME280;23341;50.296;18.960;2023-05-01T08:45:41;51027.84;;;-144.43;26.34
37486;BME280;23341;50.296;18.960;2023-05-01T08:50:47;50823.91;;;-144.43;27.45
37486;BME280;23341;50.296;18.960;2023-05-01T08:55:54;51231.78;;;-144.43;25.25
37486;BME280;23341;50.296;18.960;2023-05-01T09:00:59;50326.09;;;-144.43;26.88
37486;BME280;23341;50.296;18.960;2023-05-01T09:06:07;50378.06;;;-144.43;27.21
37486;BME280;23341;50.296;18.960;2023-05-01T09:11:12;50134.16;;;-144.43;29.23
37486;BME280;23341;50.296;18.960;2023-05-01T09:16:17;50084.19;;;-144.43;28.15
37486;BME280;23341;50.296;18.960;2023-05-01T09:21:23;50132.19;;;-144.43;28.36
37486;BME280;23341;50.296;18.960;2023-05-01T09:26:27;50090.19;;;-144.43;28.10
37486;BME280;23341;50.296;18.960;2023-05-01T09:31:31;50098.19;;;-144.43;27.80
37486;BME280;23341;50.296;18.960;2023-05-01T09:36:38;50150.16;;;-144.43;28.59
37486;BME280;23341;50.296;18.960;2023-05-01T09:41:50;50286.09;;;-144.43;28.04
37486;BME280;23341;50.296;18.960;2023-05-01T09:46:55;50200.13;;;-144.43;28.07
37486;BME280;23341;50.296;18.960;2023-05-01T09:52:11;50262.13;;;-144.43;28.76
37486;BME280;23341;50.296;18.960;2023-05-01T09:57:16;50308.09;;;-144.43;28.13
37486;BME280;23341;50.296;18.960;2023-05-01T10:02:27;50356.06;;;-144.43;27.60
37486;BME280;23341;50.296;18.960;2023-05-01T10:07:34;50198.13;;;-144.43;27.65
37486;BME280;23341;50.296;18.960;2023-05-01T10:12:38;50496.00;;;-144.43;27.85
37486;BME280;23341;50.296;18.960;2023-05-01T10:17:43;50322.09;;;-144.43;27.71
37486;BME280;23341;50.296;18.960;2023-05-01T10:22:49;50222.13;;;-144.43;27.05
37486;BME280;23341;50.296;18.960;2023-05-01T10:27:54;50304.09;;;-144.43;27.00
37486;BME280;23341;50.296;18.960;2023-05-01T10:32:59;50320.09;;;-144.43;25.77
37486;BME280;23341;50.296;18.960;2023-05-01T10:38:07;50472.03;;;-144.43;25.91
37486;BME280;23341;50.296;18.960;2023-05-01T10:43:13;50458.03;;;-144.43;25.79
37486;BME280;23341;50.296;18.960;2023-05-01T10:48:55;50410.03;;;-144.43;24.71
37486;BME280;23341;50.296;18.960;2023-05-01T10:54:22;50540.00;;;-144.43;25.34
37486;BME280;23341;50.296;18.960;2023-05-01T11:05:07;50661.94;;;-144.43;23.36
37486;BME280;23341;50.296;18.960;2023-05-01T11:10:26;50729.94;;;-144.43;23.84
37486;BME280;23341;50.296;18.960;2023-05-01T11:15:31;50785.91;;;-144.43;23.36
37486;BME280;23341;50.296;18.960;2023-05-01T11:20:45;50542.00;;;-144.43;24.13
37486;BME280;23341;50.296;18.960;2023-05-01T11:26:02;50619.97;;;-144.43;23.96
37486;BME280;23341;50.296;18.960;2023-05-01T11:31:16;50376.06;;;-144.43;24.66
37486;BME280;23341;50.296;18.960;2023-05-01T11:36:20;50416.03;;;-144.43;24.59
37486;BME280;23341;50.296;18.960;2023-05-01T11:41:26;50424.03;;;-144.43;25.02
37486;BME280;23341;50.296;18.960;2023-05-01T11:46:31;50366.06;;;-144.43;25.19
37486;BME280;23341;50.296;18.960;2023-05-01T11:51:36;50510.00;;;-144.43;24.66
37486;BME280;23341;50.296;18.960;2023-05-01T11:56:42;50781.91;;;-144.43;24.25
37486;BME280;23341;50.296;18.960;2023-05-01T12:01:46;50613.97;;;-144.43;24.25
37486;BME280;23341;50.296;18.960;2023-05-01T12:06:52;50671.94;;;-144.43;24.21
37486;BME280;23341;50.296;18.960;2023-05-01T12:11:58;50665.94;;;-144.43;24.33
37486;BME280;23341;50.296;18.960;2023-05-01T12:17:05;50945.84;;;-144.43;24.10
37486;BME280;23341;50.296;18.960;2023-05-01T12:22:11;50953.84;;;-144.43;24.33
37486;BME280;23341;50.296;18.960;2023-05-01T12:27:18;50813.91;;;-144.43;25.05
37486;BME280;23341;50.296;18.960;2023-05-01T12:32:29;50995.84;;;-144.43;25.02
37486;BME280;23341;50.296;18.960;2023-05-01T12:37:34;50685.94;;;-144.43;24.79
37486;BME280;23341;50.296;18.960;2023-05-01T12:42:40;50857.88;;;-144.43;25.25
37486;BME280;23341;50.296;18.960;2023-05-01T12:47:44;50763.91;;;-144.43;25.43
37486;BME280;23341;50.296;18.960;2023-05-01T12:52:49;51011.84;;;-144.43;25.04
37486;BME280;23341;50.296;18.960;2023-05-01T12:57:54;51061.81;;;-144.43;24.72
37486;BME280;23341;50.296;18.960;2023-05-01T13:03:02;51025.84;;;-144.43;25.13
37486;BME280;23341;50.296;18.960;2023-05-01T13:08:06;51137.81;;;-144.43;25.21
37486;BME280;23341;50.296;18.960;2023-05-01T13:13:12;51135.81;;;-144.43;24.89
37486;BME280;23341;50.296;18.960;2023-05-01T13:18:16;51509.75;;;-144.43;24.54
37486;BME280;23341;50.296;18.960;2023-05-01T13:23:20;51923.72;;;-144.43;23.32
37486;BME280;23341;50.296;18.960;2023-05-01T13:28:26;52265.72;;;-144.43;23.17
37486;BME280;23341;50.296;18.960;2023-05-01T13:33:31;53025.81;;;-144.43;22.77
37486;BME280;23341;50.296;18.960;2023-05-01T13:38:40;52901.78;;;-144.43;23.00
37486;BME280;23341;50.296;18.960;2023-05-01T13:43:47;53245.88;;;-144.43;22.24
37486;BME280;23341;50.296;18.960;2023-05-01T13:48:52;53630.00;;;-144.43;21.73
37486;BME280;23341;50.296;18.960;2023-05-01T13:53:56;52961.81;;;-144.43;22.16
37486;BME280;23341;50.296;18.960;2023-05-01T13:59:03;52239.72;;;-144.43;23.45
37486;BME280;23341;50.296;18.960;2023-05-01T14:04:08;52477.72;;;-144.43;22.88
37486;BME280;23341;50.296;18.960;2023-05-01T14:09:16;53063.81;;;-144.43;22.39
37486;BME280;23341;50.296;18.960;2023-05-01T14:14:22;53251.88;;;-144.43;22.44
37486;BME280;23341;50.296;18.960;2023-05-01T14:19:26;53267.88;;;-144.43;22.24
37486;BME280;23341;50.296;18.960;2023-05-01T14:24:32;52525.72;;;-144.43;23.17
37486;BME280;23341;50.296;18.960;2023-05-01T14:29:41;52141.69;;;-144.43;23.41
37486;BME280;23341;50.296;18.960;2023-05-01T14:34:45;52001.69;;;-144.43;23.78
37486;BME280;23341;50.296;18.960;2023-05-01T14:39:50;52025.69;;;-144.43;23.87
37486;BME280;23341;50.296;18.960;2023-05-01T14:44:55;51741.72;;;-144.43;23.78
37486;BME280;23341;50.296;18.960;2023-05-01T14:50:00;51979.69;;;-144.43;23.78
37486;BME280;23341;50.296;18.960;2023-05-01T14:55:04;51721.72;;;-144.43;23.74
37486;BME280;23341;50.296;18.960;2023-05-01T15:00:12;51863.72;;;-144.43;23.76
37486;BME280;23341;50.296;18.960;2023-05-01T15:05:16;51227.78;;;-144.43;25.21
37486;BME280;23341;50.296;18.960;2023-05-01T15:10:21;50763.91;;;-144.43;26.31
37486;BME280;23341;50.296;18.960;2023-05-01T15:15:27;50933.88;;;-144.43;26.15
37486;BME280;23341;50.296;18.960;2023-05-01T15:20:31;50961.84;;;-144.43;25.88
37486;BME280;23341;50.296;18.960;2023-05-01T15:25:35;51015.84;;;-144.43;25.83
37486;BME280;23341;50.296;18.960;2023-05-01T15:30:44;50819.91;;;-144.43;26.26
37486;BME280;23341;50.296;18.960;2023-05-01T15:35:49;50937.88;;;-144.43;26.47
37486;BME280;23341;50.296;18.960;2023-05-01T15:40:54;50745.91;;;-144.43;26.77
37486;BME280;23341;50.296;18.960;2023-05-01T15:46:01;50729.94;;;-144.43;26.96
37486;BME280;23341;50.296;18.960;2023-05-01T15:51:05;50629.97;;;-144.43;27.32
37486;BME280;23341;50.296;18.960;2023-05-01T15:56:10;50633.97;;;-144.43;28.21
37486;BME280;23341;50.296;18.960;2023-05-01T16:01:15;50422.03;;;-144.43;27.97
37486;BME280;23341;50.296;18.960;2023-05-01T16:06:20;50416.03;;;-144.43;28.36
37486;BME280;23341;50.296;18.960;2023-05-01T16:11:24;50322.09;;;-144.43;28.17
37486;BME280;23341;50.296;18.960;2023-05-01T16:16:32;50222.13;;;-144.43;28.98
37486;BME280;23341;50.296;18.960;2023-05-01T16:21:37;50204.13;;;-144.43;29.31
37486;BME280;23341;50.296;18.960;2023-05-01T16:26:41;50140.16;;;-144.43;29.35
37486;BME280;23341;50.296;18.960;2023-05-01T16:31:48;50134.16;;;-144.43;29.86
37486;BME280;23341;50.296;18.960;2023-05-01T16:36:53;50092.19;;;-144.43;29.87
37486;BME280;23341;50.296;18.960;2023-05-01T16:41:58;50100.19;;;-144.43;29.89
37486;BME280;23341;50.296;18.960;2023-05-01T16:47:05;50082.19;;;-144.43;30.46
37486;BME280;23341;50.296;18.960;2023-05-01T16:52:12;50106.19;;;-144.43;30.39
37486;BME280;23341;50.296;18.960;2023-05-01T16:57:18;50050.22;;;-144.43;29.48
37486;BME280;23341;50.296;18.960;2023-05-01T17:02:23;50098.19;;;-144.43;29.83
37486;BME280;23341;50.296;18.960;2023-05-01T17:07:28;50048.22;;;-144.43;29.62
37486;BME280;23341;50.296;18.960;2023-05-01T17:12:32;50018.22;;;-144.43;30.01
37486;BME280;23341;50.296;18.960;2023-05-01T17:17:38;49994.25;;;-144.43;29.93
37486;BME280;23341;50.296;18.960;2023-05-01T17:22:42;49944.28;;;-144.43;30.28
37486;BME280;23341;50.296;18.960;2023-05-01T17:27:47;49930.28;;;-144.43;30.44
37486;BME280;23341;50.296;18.960;2023-05-01T17:32:53;49894.28;;;-144.43;31.39
37486;BME280;23341;50.296;18.960;2023-05-01T17:37:57;49904.28;;;-144.43;31.94
37486;BME280;23341;50.296;18.960;2023-05-01T17:43:03;49846.31;;;-144.43;32.17
37486;BME280;23341;50.296;18.960;2023-05-01T17:48:09;49836.31;;;-144.43;32.71
37486;BME280;23341;50.296;18.960;2023-05-01T17:53:13;49822.34;;;-144.43;32.66
37486;BME280;23341;50.296;18.960;2023-05-01T17:58:18;49792.34;;;-144.43;32.93
37486;BME280;23341;50.296;18.960;2023-05-01T18:03:24;49754.38;;;-144.43;33.44
37486;BME280;23341;50.296;18.960;2023-05-01T18:08:29;49772.38;;;-144.43;33.61
37486;BME280;23341;50.296;18.960;2023-05-01T18:13:33;49722.41;;;-144.43;34.08
37486;BME280;23341;50.296;18.960;2023-05-01T18:18:41;49714.41;;;-144.43;34.21
37486;BME280;23341;50.296;18.960;2023-05-01T18:23:45;49728.41;;;-144.43;34.86
37486;BME280;23341;50.296;18.960;2023-05-01T18:28:51;49698.41;;;-144.43;35.23
37486;BME280;23341;50.296;18.960;2023-05-01T18:34:00;49718.41;;;-144.43;36.28
37486;BME280;23341;50.296;18.960;2023-05-01T18:39:05;49688.41;;;-144.43;36.05
37486;BME280;23341;50.296;18.960;2023-05-01T18:44:10;49682.41;;;-144.43;36.81
37486;BME280;23341;50.296;18.960;2023-05-01T18:49:16;49654.44;;;-144.43;37.60
37486;BME280;23341;50.296;18.960;2023-05-01T18:54:25;49654.44;;;-144.43;37.77
37486;BME280;23341;50.296;18.960;2023-05-01T18:59:29;49622.47;;;-144.43;38.72
37486;BME280;23341;50.296;18.960;2023-05-01T19:04:38;49620.47;;;-144.43;38.85
37486;BME280;23341;50.296;18.960;2023-05-01T19:09:58;49608.47;;;-144.43;39.36
37486;BME280;23341;50.296;18.960;2023-05-01T19:15:03;49630.44;;;-144.43;40.08
37486;BME280;23341;50.296;18.960;2023-05-01T19:20:10;49592.47;;;-144.43;40.71
37486;BME280;23341;50.296;18.960;2023-05-01T19:25:14;49592.47;;;-144.43;40.63
37486;BME280;23341;50.296;18.960;2023-05-01T19:30:18;49598.47;;;-144.43;40.68
37486;BME280;23341;50.296;18.960;2023-05-01T19:35:24;49622.47;;;-144.43;41.97
37486;BME280;23341;50.296;18.960;2023-05-01T19:40:28;49564.50;;;-144.43;41.45
37486;BME280;23341;50.296;18.960;2023-05-01T19:45:33;49552.50;;;-144.43;41.71
37486;BME280;23341;50.296;18.960;2023-05-01T19:50:39;49582.47;;;-144.43;42.06
37486;BME280;23341;50.296;18.960;2023-05-01T19:55:44;49558.50;;;-144.43;42.88
37486;BME280;23341;50.296;18.960;2023-05-01T20:00:49;49586.47;;;-144.43;42.83
37486;BME280;23341;50.296;18.960;2023-05-01T20:05:59;49546.50;;;-144.43;43.14
37486;BME280;23341;50.296;18.960;2023-05-01T20:11:03;49566.50;;;-144.43;43.42
37486;BME280;23341;50.296;18.960;2023-05-01T20:16:07;49530.50;;;-144.43;43.70
37486;BME280;23341;50.296;18.960;2023-05-01T20:21:14;49546.50;;;-144.43;42.94
37486;BME280;23341;50.296;18.960;2023-05-01T20:26:18;49534.50;;;-144.43;43.91
37486;BME280;23341;50.296;18.960;2023-05-01T20:31:22;49554.50;;;-144.43;44.56
37486;BME280;23341;50.296;18.960;2023-05-01T20:36:28;49534.50;;;-144.43;45.60
37486;BME280;23341;50.296;18.960;2023-05-01T20:41:32;49536.50;;;-144.43;46.21
37486;BME280;23341;50.296;18.960;2023-05-01T20:46:36;49510.53;;;-144.43;47.39
37486;BME280;23341;50.296;18.960;2023-05-01T20:51:42;49508.53;;;-144.43;46.56
37486;BME280;23341;50.296;18.960;2023-05-01T20:56:46;49508.53;;;-144.43;47.91
37486;BME280;23341;50.296;18.960;2023-05-01T21:01:50;49492.53;;;-144.43;47.16
37486;BME280;23341;50.296;18.960;2023-05-01T21:06:57;49492.53;;;-144.43;47.26
37486;BME280;23341;50.296;18.960;2023-05-01T21:12:03;49484.53;;;-144.43;47.59
37486;BME280;23341;50.296;18.960;2023-05-01T21:17:07;49472.56;;;-144.43;47.70
37486;BME280;23341;50.296;18.960;2023-05-01T21:22:16;49482.53;;;-144.43;48.75
37486;BME280;23341;50.296;18.960;2023-05-01T21:27:23;49496.53;;;-144.43;48.46
37486;BME280;23341;50.296;18.960;2023-05-01T21:32:29;49486.53;;;-144.43;48.80
37486;BME280;23341;50.296;18.960;2023-05-01T21:37:35;49454.56;;;-144.43;48.79
37486;BME280;23341;50.296;18.960;2023-05-01T21:42:40;49462.56;;;-144.43;49.77
37486;BME280;23341;50.296;18.960;2023-05-01T21:47:46;49452.56;;;-144.43;49.43
37486;BME280;23341;50.296;18.960;2023-05-01T21:52:51;49486.53;;;-144.43;49.88
37486;BME280;23341;50.296;18.960;2023-05-01T21:57:56;49452.56;;;-144.43;50.22
37486;BME280;23341;50.296;18.960;2023-05-01T22:03:02;49500.53;;;-144.43;51.29
37486;BME280;23341;50.296;18.960;2023-05-01T22:08:10;49454.56;;;-144.43;52.26
37486;BME280;23341;50.296;18.960;2023-05-01T22:13:14;49480.53;;;-144.43;52.80
37486;BME280;23341;50.296;18.960;2023-05-01T22:18:18;49476.53;;;-144.43;51.50
37486;BME280;23341;50.296;18.960;2023-05-01T22:23:25;49478.53;;;-144.43;51.80
37486;BME280;23341;50.296;18.960;2023-05-01T22:28:29;49464.56;;;-144.43;52.46
37486;BME280;23341;50.296;18.960;2023-05-01T22:33:33;49470.56;;;-144.43;52.64
37486;BME280;23341;50.296;18.960;2023-05-01T22:38:39;49442.56;;;-144.43;53.05
37486;BME280;23341;50.296;18.960;2023-05-01T22:43:44;49466.56;;;-144.43;52.47
37486;BME280;23341;50.296;18.960;2023-05-01T22:48:48;49460.56;;;-144.43;53.40
37486;BME280;23341;50.296;18.960;2023-05-01T22:53:53;49458.56;;;-144.43;53.18
37486;BME280;23341;50.296;18.960;2023-05-01T22:58:58;49428.59;;;-144.43;54.90
37486;BME280;23341;50.296;18.960;2023-05-01T23:04:03;49462.56;;;-144.43;54.43
37486;BME280;23341;50.296;18.960;2023-05-01T23:09:08;49414.59;;;-144.43;54.91
37486;BME280;23341;50.296;18.960;2023-05-01T23:14:15;49424.59;;;-144.43;55.47
37486;BME280;23341;50.296;18.960;2023-05-01T23:19:21;49410.59;;;-144.43;55.85
37486;BME280;23341;50.296;18.960;2023-05-01T23:24:29;49410.59;;;-144.43;56.10
37486;BME280;23341;50.296;18.960;2023-05-01T23:29:50;49426.59;;;-144.43;56.96
37486;BME280;23341;50.296;18.960;2023-05-01T23:35:00;49430.56;;;-144.43;57.16
37486;BME280;23341;50.296;18.960;2023-05-01T23:40:08;49414.59;;;-144.43;57.75
37486;BME280;23341;50.296;18.960;2023-05-01T23:45:12;49438.56;;;-144.43;58.49
37486;BME280;23341;50.296;18.960;2023-05-01T23:50:18;49446.56;;;-144.43;58.95
37486;BME280;23341;50.296;18.960;2023-05-01T23:55:24;49454.56;;;-144.43;58.39
